createdAt,value
2023-04-22T00:00:15.528Z,6.80
2023-04-22T00:02:43.635Z,8.48
2023-04-22T00:05:15.150Z,7.35
2023-04-22T00:07:45.024Z,8.80
2023-04-22T00:10:13.006Z,6.93
2023-04-22T00:12:40.969Z,8.43
2023-04-22T00:15:11.678Z,8.57
2023-04-22T00:17:40.145Z,7.85
2023-04-22T00:20:11.296Z,8.05
2023-04-22T00:22:39.338Z,7.18
2023-04-22T00:25:08.178Z,7.20
2023-04-22T00:27:36.120Z,7.18
2023-04-22T00:30:04.176Z,7.93
2023-04-22T00:32:33.505Z,8.35
2023-04-22T00:35:01.484Z,8.05
2023-04-22T00:37:29.430Z,6.82
2023-04-22T00:39:57.924Z,8.50
2023-04-22T00:42:25.870Z,9.05
2023-04-22T00:44:53.885Z,8.15
2023-04-22T00:47:22.727Z,6.40
2023-04-22T00:49:51.977Z,7.72
2023-04-22T00:52:19.953Z,7.18
2023-04-22T00:54:49.576Z,8.95
2023-04-22T00:57:17.805Z,7.97
2023-04-22T00:59:45.854Z,8.18
2023-04-22T01:02:13.850Z,7.00
2023-04-22T01:04:41.827Z,7.68
2023-04-22T01:07:11.077Z,7.00
2023-04-22T01:09:40.144Z,6.85
2023-04-22T01:12:08.330Z,8.45
2023-04-22T01:14:36.367Z,7.50
2023-04-22T01:17:04.340Z,7.38
2023-04-22T01:19:32.931Z,7.22
2023-04-22T01:22:01.064Z,8.65
2023-04-22T01:24:30.343Z,7.10
2023-04-22T01:26:58.421Z,8.13
2023-04-22T01:29:26.441Z,6.78
2023-04-22T01:31:54.528Z,6.03
2023-04-22T01:34:22.571Z,7.25
2023-04-22T01:36:51.343Z,6.22
2023-04-22T01:39:19.804Z,6.72
2023-04-22T01:41:49.258Z,11.18
2023-04-22T01:44:17.289Z,8.35
2023-04-22T01:46:45.564Z,6.78
2023-04-22T01:49:13.537Z,9.00
2023-04-22T01:51:41.485Z,8.43
2023-04-22T01:54:09.638Z,8.65
2023-04-22T01:56:38.715Z,9.30
2023-04-22T01:59:08.037Z,7.90
2023-04-22T02:01:37.726Z,7.05
2023-04-22T02:04:07.794Z,7.85
2023-04-22T02:06:35.811Z,7.88
2023-04-22T02:09:06.807Z,9.15
2023-04-22T02:11:34.790Z,6.65
2023-04-22T02:14:02.721Z,9.30
2023-04-22T02:16:32.086Z,7.22
2023-04-22T02:19:00.221Z,7.25
2023-04-22T02:21:29.531Z,6.45
2023-04-22T02:23:57.506Z,7.20
2023-04-22T02:26:25.985Z,7.68
2023-04-22T02:28:54.054Z,6.68
2023-04-22T02:31:22.022Z,9.43
2023-04-22T02:33:51.329Z,7.40
2023-04-22T02:36:19.494Z,6.82
2023-04-22T02:38:47.371Z,7.28
2023-04-22T02:41:16.235Z,10.73
2023-04-22T02:43:46.220Z,8.02
2023-04-22T02:46:16.190Z,6.90
2023-04-22T02:48:44.300Z,6.95
2023-04-22T02:51:13.568Z,7.40
2023-04-22T02:53:41.495Z,7.05
2023-04-22T02:56:09.603Z,7.05
2023-04-22T02:58:37.531Z,6.75
2023-04-22T03:01:05.778Z,8.18
2023-04-22T03:03:33.953Z,7.82
2023-04-22T03:06:02.111Z,6.55
2023-04-22T03:08:31.364Z,7.60
2023-04-22T03:10:59.334Z,7.82
2023-04-22T03:13:27.258Z,8.02
2023-04-22T03:15:55.227Z,7.40
2023-04-22T03:18:23.249Z,7.07
2023-04-22T03:20:51.167Z,8.45
2023-04-22T03:23:19.596Z,7.22
2023-04-22T03:25:48.941Z,7.63
2023-04-22T03:28:16.977Z,6.78
2023-04-22T03:30:45.105Z,7.18
2023-04-22T03:33:13.125Z,8.57
2023-04-22T03:35:50.039Z,9.38
2023-04-22T03:38:18.595Z,6.68
2023-04-22T03:40:48.209Z,6.60
2023-04-22T03:43:23.518Z,7.35
2023-04-22T03:46:08.413Z,7.30
2023-04-22T03:48:40.139Z,7.90
2023-04-22T03:51:13.731Z,6.80
2023-04-22T03:53:42.532Z,7.85
2023-04-22T03:56:15.298Z,6.85
2023-04-22T03:58:46.463Z,6.50
2023-04-22T04:01:14.562Z,5.68
2023-04-22T04:03:45.859Z,6.75
2023-04-22T04:06:17.869Z,6.57
2023-04-22T04:08:45.964Z,5.97
2023-04-22T04:11:15.293Z,7.40
2023-04-22T04:13:43.448Z,7.97
2023-04-22T04:16:21.445Z,6.65
2023-04-22T04:18:55.727Z,5.80
2023-04-22T04:21:26.859Z,10.88
2023-04-22T04:23:56.445Z,6.57
2023-04-22T04:26:29.714Z,7.10
2023-04-22T04:29:08.656Z,6.53
2023-04-22T04:31:38.999Z,7.63
2023-04-22T04:34:07.671Z,7.82
2023-04-22T04:36:39.796Z,5.80
2023-04-22T04:39:18.958Z,6.25
2023-04-22T04:41:49.927Z,6.60
2023-04-22T04:44:18.164Z,6.72
2023-04-22T04:46:47.248Z,8.30
2023-04-22T04:49:15.609Z,7.90
2023-04-22T04:51:53.033Z,6.38
2023-04-22T04:54:21.077Z,8.05
2023-04-22T04:56:50.374Z,6.60
2023-04-22T04:59:18.353Z,5.85
2023-04-22T05:01:46.488Z,6.07
2023-04-22T05:04:14.927Z,7.45
2023-04-22T05:06:44.809Z,6.57
2023-04-22T05:09:14.457Z,5.47
2023-04-22T05:11:43.782Z,6.60
2023-04-22T05:14:20.894Z,6.78
2023-04-22T05:16:49.226Z,6.22
2023-04-22T05:19:17.217Z,7.28
2023-04-22T05:21:46.811Z,8.68
2023-04-22T05:24:15.924Z,6.78
2023-04-22T05:26:43.892Z,6.10
2023-04-22T05:29:16.809Z,7.75
2023-04-22T05:31:46.353Z,7.47
2023-04-22T05:34:14.422Z,8.82
2023-04-22T05:36:42.452Z,6.57
2023-04-22T05:39:10.447Z,6.78
2023-04-22T05:41:38.473Z,9.18
2023-04-22T05:44:10.275Z,6.20
2023-04-22T05:46:38.482Z,6.60
2023-04-22T05:49:07.993Z,4.85
2023-04-22T05:51:54.414Z,6.22
2023-04-22T05:54:26.408Z,10.93
2023-04-22T05:56:54.349Z,10.75
2023-04-22T05:59:22.409Z,7.63
2023-04-22T06:01:51.150Z,6.28
2023-04-22T06:04:22.934Z,6.15
2023-04-22T06:06:53.688Z,12.10
2023-04-22T06:09:21.862Z,5.43
2023-04-22T06:11:49.809Z,7.35
2023-04-22T06:14:17.720Z,8.60
2023-04-22T06:16:47.118Z,7.35
2023-04-22T06:19:15.043Z,10.45
2023-04-22T06:21:44.334Z,7.35
2023-04-22T06:24:12.361Z,6.55
2023-04-22T06:26:43.521Z,10.43
2023-04-22T06:29:11.490Z,5.38
2023-04-22T06:31:40.894Z,5.68
2023-04-22T06:34:08.895Z,6.13
2023-04-22T06:36:38.411Z,8.10
2023-04-22T06:39:10.941Z,4.53
2023-04-22T06:41:45.347Z,6.55
2023-04-22T06:44:32.261Z,8.07
2023-04-22T06:47:24.589Z,5.93
2023-04-22T06:50:02.322Z,6.28
2023-04-22T06:52:48.834Z,7.35
2023-04-22T06:55:18.289Z,6.63
2023-04-22T06:57:46.262Z,5.55
2023-04-22T07:00:15.509Z,5.47
2023-04-22T07:02:43.509Z,5.97
2023-04-22T07:05:11.476Z,6.75
2023-04-22T07:07:39.976Z,6.53
2023-04-22T07:10:10.835Z,5.22
2023-04-22T07:12:46.448Z,20.27
2023-04-22T07:15:14.365Z,7.28
2023-04-22T07:17:42.845Z,5.60
2023-04-22T07:20:11.906Z,10.55
2023-04-22T07:22:39.823Z,6.25
2023-04-22T07:25:08.246Z,5.88
2023-04-22T07:27:37.165Z,8.65
2023-04-22T07:30:08.326Z,6.00
2023-04-22T07:32:36.278Z,7.97
2023-04-22T07:35:04.650Z,6.65
2023-04-22T07:37:32.577Z,5.55
2023-04-22T07:40:00.597Z,6.22
2023-04-22T07:42:28.572Z,6.85
2023-04-22T07:44:57.338Z,7.35
2023-04-22T07:47:27.622Z,7.25
2023-04-22T07:49:56.468Z,5.35
2023-04-22T07:52:24.396Z,5.32
2023-04-22T07:54:52.435Z,8.73
2023-04-22T07:57:22.201Z,5.57
2023-04-22T07:59:50.249Z,5.13
2023-04-22T08:02:18.213Z,4.85
2023-04-22T08:04:47.651Z,5.35
2023-04-22T08:07:31.066Z,6.22
2023-04-22T08:10:01.273Z,5.95
2023-04-22T08:12:29.430Z,7.03
2023-04-22T08:14:58.090Z,5.72
2023-04-22T08:17:26.101Z,6.13
2023-04-22T08:19:55.406Z,6.95
2023-04-22T08:22:23.909Z,4.88
2023-04-22T08:24:51.852Z,8.70
2023-04-22T08:27:20.008Z,5.30
2023-04-22T08:29:47.907Z,4.85
2023-04-22T08:32:15.823Z,4.97
2023-04-22T08:34:44.027Z,5.45
2023-04-22T08:37:13.520Z,6.03
2023-04-22T08:39:41.620Z,4.18
2023-04-22T08:42:09.899Z,6.00
2023-04-22T08:44:37.968Z,6.60
2023-04-22T08:47:06.135Z,5.53
2023-04-22T08:49:34.278Z,5.22
2023-04-22T08:52:02.175Z,8.52
2023-04-22T08:54:32.422Z,4.80
2023-04-22T08:57:01.271Z,4.63
2023-04-22T08:59:29.199Z,6.15
2023-04-22T09:01:58.289Z,5.22
2023-04-22T09:04:26.401Z,4.13
2023-04-22T09:06:54.353Z,5.30
2023-04-22T09:09:22.304Z,5.13
2023-04-22T09:11:51.617Z,5.43
2023-04-22T09:14:20.248Z,4.60
2023-04-22T09:16:48.636Z,7.07
2023-04-22T09:19:16.692Z,6.05
2023-04-22T09:21:45.493Z,5.28
2023-04-22T09:24:14.974Z,5.32
2023-04-22T09:26:43.486Z,4.45
2023-04-22T09:29:16.308Z,6.35
2023-04-22T09:31:44.450Z,5.93
2023-04-22T09:34:12.380Z,5.50
2023-04-22T09:36:40.776Z,5.22
2023-04-22T09:39:09.143Z,4.55
2023-04-22T09:41:38.616Z,4.88
2023-04-22T09:44:09.672Z,6.10
2023-04-22T09:46:38.936Z,4.47
2023-04-22T09:49:06.850Z,6.53
2023-04-22T09:51:34.921Z,5.93
2023-04-22T09:54:05.078Z,9.23
2023-04-22T09:56:48.086Z,11.73
2023-04-22T09:59:16.991Z,10.80
2023-04-22T10:01:46.561Z,12.05
2023-04-22T10:04:15.540Z,11.30
2023-04-22T10:06:43.856Z,6.70
2023-04-22T10:09:12.350Z,6.38
2023-04-22T10:11:41.513Z,8.65
2023-04-22T10:14:11.248Z,5.28
2023-04-22T10:16:39.604Z,6.13
2023-04-22T10:19:09.315Z,7.43
2023-04-22T10:21:37.255Z,4.72
2023-04-22T10:24:05.527Z,8.60
2023-04-22T10:26:43.653Z,5.70
2023-04-22T10:29:16.785Z,8.50
2023-04-22T10:31:45.365Z,6.65
2023-04-22T10:34:15.317Z,4.15
2023-04-22T10:36:56.529Z,6.10
2023-04-22T10:39:24.602Z,4.32
2023-04-22T10:42:09.994Z,5.93
2023-04-22T10:44:49.005Z,8.13
2023-04-22T10:47:26.991Z,5.47
2023-04-22T10:50:11.907Z,6.32
2023-04-22T10:52:39.824Z,7.25
2023-04-22T10:55:08.008Z,6.22
2023-04-22T10:57:40.186Z,5.22
2023-04-22T11:00:25.155Z,5.95
2023-04-22T11:02:54.427Z,11.05
2023-04-22T11:05:26.305Z,9.88
2023-04-22T11:07:54.883Z,14.25
2023-04-22T11:10:34.141Z,15.77
2023-04-22T11:13:17.085Z,14.48
2023-04-22T11:15:56.162Z,11.23
2023-04-22T11:18:25.011Z,11.05
2023-04-22T11:20:54.504Z,11.90
2023-04-22T11:23:24.087Z,13.73
2023-04-22T11:25:58.643Z,6.00
2023-04-22T11:28:27.078Z,9.02
2023-04-22T11:30:56.717Z,9.00
2023-04-22T11:33:24.845Z,10.00
2023-04-22T11:35:55.454Z,7.18
2023-04-22T11:38:23.418Z,8.43
2023-04-22T11:40:51.308Z,10.50
2023-04-22T11:43:19.558Z,6.57
2023-04-22T11:45:47.521Z,8.93
2023-04-22T11:48:15.599Z,8.48
2023-04-22T11:50:44.158Z,7.00
2023-04-22T11:53:17.340Z,13.25
2023-04-22T11:55:45.922Z,19.67
2023-04-22T11:58:14.801Z,41.53
2023-04-22T12:00:43.752Z,31.33
2023-04-22T12:03:16.559Z,37.65
2023-04-22T12:05:45.059Z,30.23
2023-04-22T12:08:13.873Z,34.35
2023-04-22T12:10:44.395Z,29.88
2023-04-22T12:13:18.433Z,34.97
2023-04-22T12:15:46.416Z,24.90
2023-04-22T12:18:14.330Z,29.00
2023-04-22T12:20:42.371Z,30.48
2023-04-22T12:23:15.492Z,28.15
2023-04-22T12:25:45.164Z,20.25
2023-04-22T12:28:14.255Z,20.55
2023-04-22T12:30:42.643Z,20.33
2023-04-22T12:33:10.917Z,20.98
2023-04-22T12:35:38.889Z,21.27
2023-04-22T12:38:06.911Z,26.95
2023-04-22T12:40:34.860Z,19.50
2023-04-22T12:43:06.062Z,17.88
2023-04-22T12:45:34.152Z,25.55
2023-04-22T12:48:02.126Z,16.75
2023-04-22T12:50:30.084Z,21.70
2023-04-22T12:52:58.057Z,23.13
2023-04-22T12:55:26.080Z,15.60
2023-04-22T12:57:54.446Z,20.95
2023-04-22T13:00:24.383Z,25.45
2023-04-22T13:02:52.397Z,14.32
2023-04-22T13:05:20.578Z,9.48
2023-04-22T13:07:59.632Z,13.85
2023-04-22T13:10:31.796Z,11.82
2023-04-22T13:13:13.522Z,11.18
2023-04-22T13:15:46.387Z,11.57
2023-04-22T13:18:15.300Z,6.95
2023-04-22T13:20:44.340Z,6.93
2023-04-22T13:23:13.264Z,23.75
2023-04-22T13:25:41.336Z,13.65
2023-04-22T13:28:11.302Z,13.48
2023-04-22T13:30:39.478Z,8.88
2023-04-22T13:33:08.765Z,13.60
2023-04-22T13:35:37.080Z,18.67
2023-04-22T13:38:05.256Z,17.77
2023-04-22T13:40:33.234Z,12.77
2023-04-22T13:43:01.191Z,17.65
2023-04-22T13:45:29.169Z,20.20
2023-04-22T13:47:57.230Z,14.68
2023-04-22T13:50:26.470Z,17.10
2023-04-22T13:52:54.694Z,21.15
2023-04-22T13:55:22.903Z,17.77
2023-04-22T13:57:52.084Z,17.85
2023-04-22T14:00:20.668Z,16.00
2023-04-22T14:02:49.621Z,13.85
2023-04-22T14:05:18.090Z,20.38
2023-04-22T14:07:47.401Z,22.02
2023-04-22T14:10:16.136Z,19.00
2023-04-22T14:12:44.314Z,17.42
2023-04-22T14:15:12.341Z,27.02
2023-04-22T14:17:40.533Z,21.10
2023-04-22T14:20:10.744Z,16.23
2023-04-22T14:22:38.691Z,19.13
2023-04-22T14:25:08.946Z,15.27
2023-04-22T14:27:36.928Z,16.75
2023-04-22T14:30:06.155Z,11.77
2023-04-22T14:32:34.126Z,10.65
2023-04-22T14:35:02.092Z,9.10
2023-04-22T14:37:31.615Z,18.77
2023-04-22T14:39:59.726Z,9.05
2023-04-22T14:42:29.006Z,10.25
2023-04-22T14:44:56.953Z,7.13
2023-04-22T14:47:24.938Z,6.05
2023-04-22T14:49:53.189Z,7.95
2023-04-22T14:52:21.217Z,7.85
2023-04-22T14:54:51.727Z,9.73
2023-04-22T14:57:19.962Z,7.10
2023-04-22T14:59:49.300Z,9.90
2023-04-22T15:02:17.332Z,7.22
2023-04-22T15:04:45.337Z,6.10
2023-04-22T15:07:13.251Z,9.85
2023-04-22T15:09:41.460Z,11.30
2023-04-22T15:12:09.769Z,7.25
2023-04-22T15:14:37.713Z,6.28
2023-04-22T15:17:07.461Z,4.30
2023-04-22T15:19:35.335Z,6.40
2023-04-22T15:22:03.465Z,5.53
2023-04-22T15:24:31.707Z,8.93
2023-04-22T15:27:01.157Z,6.75
2023-04-22T15:29:29.561Z,4.15
2023-04-22T15:31:57.822Z,4.07
2023-04-22T15:34:27.336Z,6.32
2023-04-22T15:36:55.282Z,4.80
2023-04-22T15:39:23.432Z,4.43
2023-04-22T15:41:51.349Z,5.75
2023-04-22T15:44:19.421Z,4.07
2023-04-22T15:46:47.382Z,10.00
2023-04-22T15:49:16.601Z,6.45
2023-04-22T15:51:45.892Z,6.22
2023-04-22T15:54:13.853Z,9.07
2023-04-22T15:56:42.070Z,5.53
2023-04-22T15:59:10.044Z,4.28
2023-04-22T16:01:40.274Z,7.45
2023-04-22T16:04:08.921Z,6.97
2023-04-22T16:06:38.112Z,8.00
2023-04-22T16:09:07.479Z,5.95
2023-04-22T16:11:35.633Z,9.65
2023-04-22T16:14:03.525Z,8.80
2023-04-22T16:16:31.483Z,11.70
2023-04-22T16:18:59.708Z,10.95
2023-04-22T16:21:28.654Z,6.82
2023-04-22T16:23:56.710Z,4.65
2023-04-22T16:26:26.711Z,6.68
2023-04-22T16:28:55.288Z,5.57
2023-04-22T16:31:23.705Z,4.32
2023-04-22T16:33:51.873Z,3.67
2023-04-22T16:36:19.826Z,7.65
2023-04-22T16:38:47.791Z,6.00
2023-04-22T16:41:15.951Z,5.72
2023-04-22T16:43:45.332Z,4.18
2023-04-22T16:46:13.881Z,5.55
2023-04-22T16:48:41.865Z,11.90
2023-04-22T16:51:09.776Z,5.85
2023-04-22T16:53:37.709Z,5.22
2023-04-22T16:56:05.956Z,3.15
2023-04-22T16:58:33.917Z,7.43
2023-04-22T17:01:03.206Z,6.68
2023-04-22T17:03:31.458Z,5.93
2023-04-22T17:05:59.436Z,5.82
2023-04-22T17:08:27.428Z,7.82
2023-04-22T17:10:55.359Z,7.10
2023-04-22T17:13:23.286Z,8.48
2023-04-22T17:15:51.313Z,10.48
2023-04-22T17:18:20.629Z,9.52
2023-04-22T17:20:49.079Z,5.63
2023-04-22T17:23:18.805Z,3.75
2023-04-22T17:25:47.837Z,5.07
2023-04-22T17:28:15.872Z,4.07
2023-04-22T17:30:43.784Z,8.30
2023-04-22T17:33:11.734Z,5.35
2023-04-22T17:35:40.997Z,4.80
2023-04-22T17:38:08.931Z,6.53
2023-04-22T17:40:37.057Z,5.88
2023-04-22T17:43:04.978Z,2.97
2023-04-22T17:45:32.901Z,4.82
2023-04-22T17:48:00.868Z,5.13
2023-04-22T17:50:28.791Z,10.93
2023-04-22T17:52:58.194Z,7.45
2023-04-22T17:55:26.148Z,5.88
2023-04-22T17:57:54.068Z,6.50
2023-04-22T18:00:22.113Z,3.35
2023-04-22T18:02:50.088Z,5.38
2023-04-22T18:05:18.403Z,4.43
2023-04-22T18:07:46.365Z,5.15
2023-04-22T18:10:15.687Z,11.45
2023-04-22T18:12:43.609Z,2.67
2023-04-22T18:15:11.829Z,5.20
2023-04-22T18:17:39.885Z,4.68
2023-04-22T18:20:18.327Z,4.40
2023-04-22T18:22:47.254Z,6.88
2023-04-22T18:25:16.757Z,4.28
2023-04-22T18:27:44.742Z,5.72
2023-04-22T18:30:12.901Z,7.18
2023-04-22T18:32:40.973Z,4.65
2023-04-22T18:35:09.711Z,3.92
2023-04-22T18:37:37.681Z,4.45
2023-04-22T18:40:07.224Z,2.83
2023-04-22T18:42:36.539Z,3.03
2023-04-22T18:45:05.141Z,5.25
2023-04-22T18:47:33.346Z,2.75
2023-04-22T18:50:01.653Z,3.80
2023-04-22T18:52:29.623Z,4.43
2023-04-22T18:54:57.711Z,7.85
2023-04-22T18:57:25.710Z,5.63
2023-04-22T18:59:55.094Z,8.02
2023-04-22T19:02:23.245Z,4.88
2023-04-22T19:04:51.301Z,3.65
2023-04-22T19:07:19.262Z,6.65
2023-04-22T19:09:47.410Z,6.30
2023-04-22T19:12:16.640Z,3.83
2023-04-22T19:14:44.603Z,5.22
2023-04-22T19:17:14.010Z,8.88
2023-04-22T19:19:42.290Z,5.63
2023-04-22T19:22:12.318Z,4.13
2023-04-22T19:24:40.265Z,6.60
2023-04-22T19:27:12.344Z,3.95
2023-04-22T19:29:41.564Z,4.43
2023-04-22T19:32:10.877Z,5.22
2023-04-22T19:34:40.417Z,4.68
2023-04-22T19:37:08.505Z,7.40
2023-04-22T19:39:36.682Z,5.95
2023-04-22T19:42:04.921Z,4.43
2023-04-22T19:44:33.471Z,6.28
2023-04-22T19:47:01.962Z,5.88
2023-04-22T19:49:32.687Z,7.35
2023-04-22T19:52:02.021Z,9.43
2023-04-22T19:54:30.110Z,6.05
2023-04-22T19:56:58.941Z,6.75
2023-04-22T19:59:28.048Z,9.05
2023-04-22T20:01:56.349Z,6.82
2023-04-22T20:04:24.979Z,8.82
2023-04-22T20:06:53.268Z,7.03
2023-04-22T20:09:22.654Z,4.90
2023-04-22T20:11:50.709Z,8.32
2023-04-22T20:14:18.762Z,9.95
2023-04-22T20:16:47.864Z,9.32
2023-04-22T20:19:16.461Z,12.75
2023-04-22T20:21:44.420Z,7.57
2023-04-22T20:24:18.906Z,6.18
2023-04-22T20:26:49.585Z,13.05
2023-04-22T20:29:18.272Z,8.68
2023-04-22T20:31:46.732Z,7.95
2023-04-22T20:34:14.989Z,7.72
2023-04-22T20:36:43.102Z,7.15
2023-04-22T20:39:12.402Z,8.40
2023-04-22T20:41:41.130Z,10.02
2023-04-22T20:44:10.616Z,6.68
2023-04-22T20:46:38.939Z,6.28
2023-04-22T20:49:07.074Z,8.60
2023-04-22T20:51:35.137Z,11.25
2023-04-22T20:54:03.857Z,7.35
2023-04-22T20:56:33.304Z,6.50
2023-04-22T20:59:01.683Z,7.70
2023-04-22T21:01:31.240Z,9.85
2023-04-22T21:03:59.489Z,8.27
2023-04-22T21:06:28.107Z,7.80
2023-04-22T21:08:56.189Z,10.27
2023-04-22T21:11:24.739Z,6.90
2023-04-22T21:13:52.798Z,7.72
2023-04-22T21:16:21.029Z,9.18
2023-04-22T21:18:50.640Z,11.95
2023-04-22T21:21:19.165Z,10.63
2023-04-22T21:23:47.281Z,9.00
2023-04-22T21:26:16.171Z,10.23
2023-04-22T21:28:44.856Z,7.50
2023-04-22T21:31:13.864Z,8.98
2023-04-22T21:33:42.058Z,9.55
2023-04-22T21:36:11.713Z,6.47
2023-04-22T21:38:39.900Z,10.77
2023-04-22T21:41:07.969Z,11.40
2023-04-22T21:43:36.244Z,8.23
2023-04-22T21:46:04.455Z,5.85
2023-04-22T21:48:32.899Z,8.98
2023-04-22T21:51:00.885Z,10.18
2023-04-22T21:53:30.536Z,13.63
2023-04-22T21:55:58.737Z,8.55
2023-04-22T21:58:26.946Z,7.45
2023-04-22T22:00:55.953Z,9.93
2023-04-22T22:03:24.060Z,11.45
2023-04-22T22:05:52.210Z,12.52
2023-04-22T22:08:20.595Z,9.52
2023-04-22T22:10:49.934Z,6.93
2023-04-22T22:13:18.170Z,7.55
2023-04-22T22:15:46.513Z,11.00
2023-04-22T22:18:14.429Z,8.15
2023-04-22T22:20:44.884Z,12.02
2023-04-22T22:23:12.882Z,9.95
2023-04-22T22:25:40.899Z,7.90
2023-04-22T22:28:10.226Z,6.20
2023-04-22T22:30:38.275Z,10.23
2023-04-22T22:33:06.428Z,9.63
2023-04-22T22:35:34.906Z,8.57
2023-04-22T22:38:03.209Z,9.60
2023-04-22T22:40:31.620Z,9.63
2023-04-22T22:42:59.978Z,9.43
2023-04-22T22:45:30.634Z,10.02
2023-04-22T22:47:58.814Z,8.25
2023-04-22T22:50:27.283Z,8.10
2023-04-22T22:52:55.495Z,8.10
2023-04-22T22:55:23.454Z,8.95
2023-04-22T22:57:51.318Z,8.27
2023-04-22T23:00:19.904Z,8.90
2023-04-22T23:02:49.547Z,12.52
2023-04-22T23:05:17.727Z,8.02
2023-04-22T23:07:45.767Z,8.82
2023-04-22T23:10:13.735Z,8.70
2023-04-22T23:12:41.716Z,10.02
2023-04-22T23:15:10.218Z,9.93
2023-04-22T23:17:38.291Z,7.70
2023-04-22T23:20:11.147Z,7.85
2023-04-22T23:22:40.280Z,9.30
2023-04-22T23:25:09.484Z,7.43
2023-04-22T23:27:37.997Z,9.38
2023-04-22T23:30:07.436Z,9.27
2023-04-22T23:32:35.441Z,7.25
2023-04-22T23:35:03.418Z,8.77
2023-04-22T23:37:32.871Z,11.93
2023-04-22T23:40:00.799Z,7.65
2023-04-22T23:42:28.751Z,9.70
2023-04-22T23:44:56.675Z,8.68
2023-04-22T23:47:25.711Z,10.25
2023-04-22T23:49:54.047Z,9.07
2023-04-22T23:52:22.287Z,9.15
2023-04-22T23:54:52.342Z,8.98
2023-04-22T23:57:21.376Z,8.50
2023-04-22T23:59:50.056Z,7.75
